Terminal Aerodrome Forecast
Issued by NWS Lake Charles, LA

Home | Current Version | Previous Version | Text Only | Print | Product List | Glossary On
Versions: 1 2 3 4 5 6 7 8 9 10 11 12 13 14 15 16 17 18 19
000
FTUS44 KLCH 301700
TAFLCH
TAF
KLCH 301723Z 3018/0118 14008KT P6SM SCT035 BKN200
     FM010000 VRB03KT P6SM SCT250
      TEMPO 0109/0113 4SM BR SCT015
     FM011400 15008KT P6SM BKN025=

USA.gov is the U.S. government's official web portal to all federal, state and local government web resources and services.